createdAt,value
2023-03-26T00:06:25.615Z,35.33
2023-03-26T00:10:25.852Z,35.36
2023-03-26T00:14:26.074Z,35.35
2023-03-26T00:18:26.259Z,35.36
2023-03-26T00:22:26.485Z,35.33
2023-03-26T00:26:26.661Z,35.38
2023-03-26T00:30:26.909Z,35.36
2023-03-26T00:34:27.130Z,35.32
2023-03-26T00:38:27.367Z,35.34
2023-03-26T00:42:27.323Z,35.38
2023-03-26T00:46:27.300Z,35.37
2023-03-26T00:50:27.226Z,35.38
2023-03-26T05:02:26.342Z,35.41
2023-03-26T05:06:26.198Z,35.41
2023-03-26T05:14:26.270Z,35.40
2023-03-26T05:18:26.228Z,35.43
2023-03-26T05:22:26.205Z,35.41
2023-03-26T05:26:26.171Z,35.41
2023-03-26T05:30:26.077Z,35.39
2023-03-26T05:34:26.083Z,35.41
2023-03-26T05:38:26.066Z,35.41
2023-03-26T05:42:26.044Z,35.35
2023-03-26T05:46:26.009Z,35.39
2023-03-26T05:50:25.948Z,35.39
2023-03-26T05:54:26.073Z,35.38
2023-03-26T05:58:26.099Z,35.40
2023-03-26T06:02:26.098Z,35.37
2023-03-26T06:06:25.973Z,35.36
2023-03-26T06:10:25.948Z,35.34
2023-03-26T06:14:25.961Z,35.30
2023-03-26T06:18:25.899Z,35.30
2023-03-26T06:22:25.829Z,35.30
2023-03-26T06:26:25.855Z,35.30
2023-03-26T06:30:25.822Z,35.28
2023-03-26T06:34:25.785Z,35.27
2023-03-26T06:38:25.786Z,35.26
2023-03-26T06:43:06.957Z,35.22
2023-03-26T06:46:26.767Z,35.23
2023-03-26T06:50:25.659Z,35.20
2023-03-26T06:54:25.673Z,35.22
2023-03-26T06:58:25.587Z,35.21
2023-03-26T07:02:25.548Z,35.19
2023-03-26T07:06:25.500Z,35.17
2023-03-26T07:10:25.483Z,35.19
2023-03-26T07:14:25.504Z,35.14
2023-03-26T07:18:25.427Z,35.08
2023-03-26T07:22:25.398Z,35.03
2023-03-26T07:26:25.312Z,34.96
2023-03-26T07:30:25.308Z,34.97
2023-03-26T07:34:25.474Z,35.02
2023-03-26T07:38:25.724Z,35.05
2023-03-26T07:42:25.954Z,35.05
2023-03-26T07:46:25.929Z,35.07
2023-03-26T07:50:25.851Z,35.01
2023-03-26T07:54:25.792Z,35.01
2023-03-26T07:58:25.801Z,34.99
2023-03-26T08:02:25.806Z,34.95
2023-03-26T08:06:25.698Z,34.92
2023-03-26T08:10:25.667Z,34.93
2023-03-26T08:14:25.617Z,34.92
2023-03-26T08:18:25.572Z,34.92
2023-03-26T08:22:25.558Z,34.97
2023-03-26T08:26:25.671Z,34.96
2023-03-26T08:30:25.861Z,34.98
2023-03-26T08:34:26.090Z,34.93
2023-03-26T08:38:26.301Z,34.89
2023-03-26T08:42:26.429Z,34.89
2023-03-26T08:46:26.606Z,34.89
2023-03-26T08:50:26.775Z,34.93
2023-03-26T08:54:26.937Z,34.92
2023-03-26T08:58:27.223Z,34.92
2023-03-26T09:02:27.351Z,34.93
2023-03-26T09:06:27.449Z,34.96
2023-03-26T09:10:27.638Z,34.97
2023-03-26T09:14:27.770Z,34.98
2023-03-26T09:18:27.974Z,35.02
2023-03-26T09:22:28.099Z,35.04
2023-03-26T09:26:28.222Z,35.04
2023-03-26T09:30:28.430Z,35.08
2023-03-26T09:34:28.555Z,35.05
2023-03-26T09:38:28.704Z,35.05
2023-03-26T09:42:28.818Z,35.06
2023-03-26T09:46:29.130Z,35.04
2023-03-26T10:06:29.565Z,34.97
2023-03-26T10:38:30.381Z,35.01
2023-03-26T10:42:30.399Z,35.06
2023-03-26T10:46:30.547Z,35.10
2023-03-26T10:50:30.616Z,35.11
2023-03-26T10:54:30.742Z,35.12
2023-03-26T10:58:48.373Z,35.11
2023-03-26T11:06:30.775Z,35.08
2023-03-26T11:10:30.675Z,35.08
2023-03-26T11:14:34.942Z,35.06
2023-03-26T11:18:30.612Z,35.05
2023-03-26T11:22:30.566Z,35.03
2023-03-26T11:26:30.590Z,35.00
2023-03-26T11:30:30.529Z,35.02
2023-03-26T11:34:30.461Z,35.04
2023-03-26T11:38:30.467Z,35.06
2023-03-26T11:42:30.415Z,35.00
2023-03-26T11:46:33.144Z,34.99
2023-03-26T11:50:30.339Z,34.97
2023-03-26T11:54:30.398Z,35.02
2023-03-26T11:58:30.296Z,35.02
2023-03-26T12:02:30.263Z,35.10
2023-03-26T12:06:30.160Z,35.12
2023-03-26T12:10:30.132Z,35.16
2023-03-26T12:14:30.101Z,35.18
2023-03-26T12:18:30.065Z,35.21
2023-03-26T12:22:30.043Z,35.23
2023-03-26T12:26:29.974Z,35.25
2023-03-26T12:30:29.940Z,35.29
2023-03-26T12:34:29.917Z,35.28
2023-03-26T12:38:29.865Z,35.34
2023-03-26T12:44:48.365Z,35.35
2023-03-26T12:50:34.532Z,35.35
2023-03-26T12:58:29.702Z,35.41
2023-03-26T13:02:29.765Z,35.45
2023-03-26T13:06:29.620Z,35.42
2023-03-26T13:10:29.576Z,35.42
2023-03-26T13:14:29.585Z,35.45
2023-03-26T13:18:29.680Z,35.46
2023-03-26T13:22:29.740Z,35.48
2023-03-26T13:26:29.832Z,35.52
2023-03-26T13:30:29.933Z,35.51
2023-03-26T13:34:30.037Z,35.54
2023-03-26T13:38:30.128Z,35.55
2023-03-26T13:42:30.193Z,35.56
2023-03-26T13:46:30.362Z,35.58
2023-03-26T13:50:30.448Z,35.58
2023-03-26T13:54:30.573Z,35.60
2023-03-26T19:46:53.734Z,35.83
2023-03-26T20:10:38.342Z,35.79
2023-03-26T20:50:44.849Z,35.80
2023-03-26T20:54:39.283Z,35.79
2023-03-26T20:58:38.288Z,35.80
2023-03-26T21:02:38.903Z,35.78
2023-03-26T21:26:41.654Z,35.78
